sensor_id;sensor_type;location;lat;lon;timestamp;P1;durP1;ratioP1;P2;durP2;ratioP2
10677;SDS011;5387;48.722;9.110;2024-01-15T00:00:58;13.73;;;4.97;;
10677;SDS011;5387;48.722;9.110;2024-01-15T00:03:25;16.23;;;6.63;;
10677;SDS011;5387;48.722;9.110;2024-01-15T00:05:53;16.77;;;7.10;;
10677;SDS011;5387;48.722;9.110;2024-01-15T00:08:20;11.77;;;5.53;;
10677;SDS011;5387;48.722;9.110;2024-01-15T00:10:46;17.47;;;6.97;;
10677;SDS011;5387;48.722;9.110;2024-01-15T00:13:13;14.27;;;6.40;;
10677;SDS011;5387;48.722;9.110;2024-01-15T00:15:40;12.00;;;6.37;;
10677;SDS011;5387;48.722;9.110;2024-01-15T00:18:07;12.57;;;5.90;;
10677;SDS011;5387;48.722;9.110;2024-01-15T00:20:33;10.53;;;5.70;;
10677;SDS011;5387;48.722;9.110;2024-01-15T00:23:02;11.63;;;4.57;;
10677;SDS011;5387;48.722;9.110;2024-01-15T00:25:29;11.10;;;5.63;;
10677;SDS011;5387;48.722;9.110;2024-01-15T00:27:55;12.23;;;6.13;;
10677;SDS011;5387;48.722;9.110;2024-01-15T00:30:22;16.83;;;5.87;;
10677;SDS011;5387;48.722;9.110;2024-01-15T00:32:49;18.77;;;6.57;;
10677;SDS011;5387;48.722;9.110;2024-01-15T00:35:16;17.80;;;7.27;;
10677;SDS011;5387;48.722;9.110;2024-01-15T00:37:42;15.77;;;6.00;;
10677;SDS011;5387;48.722;9.110;2024-01-15T00:40:11;13.83;;;7.07;;
10677;SDS011;5387;48.722;9.110;2024-01-15T00:42:37;16.63;;;5.73;;
10677;SDS011;5387;48.722;9.110;2024-01-15T00:45:04;14.00;;;6.53;;
10677;SDS011;5387;48.722;9.110;2024-01-15T00:47:33;15.60;;;7.33;;
10677;SDS011;5387;48.722;9.110;2024-01-15T00:49:59;13.17;;;6.10;;
10677;SDS011;5387;48.722;9.110;2024-01-15T00:52:26;10.70;;;4.80;;
10677;SDS011;5387;48.722;9.110;2024-01-15T00:54:53;13.33;;;6.20;;
10677;SDS011;5387;48.722;9.110;2024-01-15T00:57:21;12.80;;;6.83;;
10677;SDS011;5387;48.722;9.110;2024-01-15T00:59:48;16.73;;;6.60;;
10677;SDS011;5387;48.722;9.110;2024-01-15T01:02:15;14.33;;;7.13;;
10677;SDS011;5387;48.722;9.110;2024-01-15T01:04:41;16.97;;;7.00;;
10677;SDS011;5387;48.722;9.110;2024-01-15T01:07:08;9.10;;;3.77;;
10677;SDS011;5387;48.722;9.110;2024-01-15T01:09:35;13.10;;;6.93;;
10677;SDS011;5387;48.722;9.110;2024-01-15T01:12:02;17.30;;;6.50;;
10677;SDS011;5387;48.722;9.110;2024-01-15T01:14:30;10.40;;;5.27;;
10677;SDS011;5387;48.722;9.110;2024-01-15T01:16:58;20.10;;;7.60;;
10677;SDS011;5387;48.722;9.110;2024-01-15T01:19:24;21.20;;;5.77;;
10677;SDS011;5387;48.722;9.110;2024-01-15T01:21:51;16.63;;;6.67;;
10677;SDS011;5387;48.722;9.110;2024-01-15T01:24:18;12.50;;;6.03;;
10677;SDS011;5387;48.722;9.110;2024-01-15T01:26:45;15.13;;;6.70;;
10677;SDS011;5387;48.722;9.110;2024-01-15T01:29:12;14.30;;;6.67;;
10677;SDS011;5387;48.722;9.110;2024-01-15T01:31:43;16.83;;;7.30;;
10677;SDS011;5387;48.722;9.110;2024-01-15T01:34:10;15.40;;;5.93;;
10677;SDS011;5387;48.722;9.110;2024-01-15T01:36:39;14.10;;;6.13;;
10677;SDS011;5387;48.722;9.110;2024-01-15T01:39:06;15.83;;;5.70;;
10677;SDS011;5387;48.722;9.110;2024-01-15T01:41:34;14.10;;;6.83;;
10677;SDS011;5387;48.722;9.110;2024-01-15T01:44:01;12.63;;;6.07;;
10677;SDS011;5387;48.722;9.110;2024-01-15T01:46:27;15.97;;;6.40;;
10677;SDS011;5387;48.722;9.110;2024-01-15T01:48:56;15.20;;;6.53;;
10677;SDS011;5387;48.722;9.110;2024-01-15T01:51:28;14.87;;;6.77;;
10677;SDS011;5387;48.722;9.110;2024-01-15T01:53:55;16.17;;;6.87;;
10677;SDS011;5387;48.722;9.110;2024-01-15T01:56:22;16.40;;;6.67;;
10677;SDS011;5387;48.722;9.110;2024-01-15T01:58:49;15.20;;;6.47;;
10677;SDS011;5387;48.722;9.110;2024-01-15T02:01:16;15.97;;;6.53;;
10677;SDS011;5387;48.722;9.110;2024-01-15T02:03:44;16.50;;;6.93;;
10677;SDS011;5387;48.722;9.110;2024-01-15T02:06:13;12.70;;;5.33;;
10677;SDS011;5387;48.722;9.110;2024-01-15T02:08:41;16.13;;;6.30;;
10677;SDS011;5387;48.722;9.110;2024-01-15T02:11:09;15.50;;;6.77;;
10677;SDS011;5387;48.722;9.110;2024-01-15T02:13:36;16.70;;;6.57;;
10677;SDS011;5387;48.722;9.110;2024-01-15T02:16:05;11.23;;;5.80;;
10677;SDS011;5387;48.722;9.110;2024-01-15T02:18:39;15.87;;;6.63;;
10677;SDS011;5387;48.722;9.110;2024-01-15T02:21:06;14.37;;;6.33;;
10677;SDS011;5387;48.722;9.110;2024-01-15T02:23:34;19.70;;;6.43;;
10677;SDS011;5387;48.722;9.110;2024-01-15T02:26:01;9.53;;;3.30;;
10677;SDS011;5387;48.722;9.110;2024-01-15T02:28:28;14.23;;;6.23;;
10677;SDS011;5387;48.722;9.110;2024-01-15T02:30:56;18.40;;;5.90;;
10677;SDS011;5387;48.722;9.110;2024-01-15T02:33:22;8.47;;;5.30;;
10677;SDS011;5387;48.722;9.110;2024-01-15T02:35:49;18.00;;;7.13;;
10677;SDS011;5387;48.722;9.110;2024-01-15T02:38:16;13.27;;;5.60;;
10677;SDS011;5387;48.722;9.110;2024-01-15T02:40:45;13.27;;;6.00;;
10677;SDS011;5387;48.722;9.110;2024-01-15T02:43:12;11.80;;;5.43;;
10677;SDS011;5387;48.722;9.110;2024-01-15T02:45:39;16.30;;;6.03;;
10677;SDS011;5387;48.722;9.110;2024-01-15T02:48:06;12.60;;;5.83;;
10677;SDS011;5387;48.722;9.110;2024-01-15T02:50:33;13.73;;;6.47;;
10677;SDS011;5387;48.722;9.110;2024-01-15T02:53:00;16.93;;;6.17;;
10677;SDS011;5387;48.722;9.110;2024-01-15T02:55:26;13.47;;;6.33;;
10677;SDS011;5387;48.722;9.110;2024-01-15T02:57:55;14.17;;;6.50;;
10677;SDS011;5387;48.722;9.110;2024-01-15T03:00:22;16.80;;;6.47;;
10677;SDS011;5387;48.722;9.110;2024-01-15T03:02:50;14.83;;;6.63;;
10677;SDS011;5387;48.722;9.110;2024-01-15T03:05:17;15.93;;;6.30;;
10677;SDS011;5387;48.722;9.110;2024-01-15T03:07:44;11.77;;;4.70;;
10677;SDS011;5387;48.722;9.110;2024-01-15T03:10:10;12.67;;;6.03;;
10677;SDS011;5387;48.722;9.110;2024-01-15T03:12:37;12.13;;;5.60;;
10677;SDS011;5387;48.722;9.110;2024-01-15T03:15:06;11.07;;;6.03;;
10677;SDS011;5387;48.722;9.110;2024-01-15T03:17:33;14.37;;;5.13;;
10677;SDS011;5387;48.722;9.110;2024-01-15T03:20:00;11.27;;;5.83;;
10677;SDS011;5387;48.722;9.110;2024-01-15T03:22:28;11.40;;;5.17;;
10677;SDS011;5387;48.722;9.110;2024-01-15T03:24:54;10.10;;;4.70;;
10677;SDS011;5387;48.722;9.110;2024-01-15T03:27:21;10.93;;;5.10;;
10677;SDS011;5387;48.722;9.110;2024-01-15T03:29:47;16.27;;;6.13;;
10677;SDS011;5387;48.722;9.110;2024-01-15T03:32:15;10.47;;;5.40;;
10677;SDS011;5387;48.722;9.110;2024-01-15T03:34:42;14.30;;;6.33;;
10677;SDS011;5387;48.722;9.110;2024-01-15T03:37:09;16.30;;;6.53;;
10677;SDS011;5387;48.722;9.110;2024-01-15T03:39:35;11.73;;;4.50;;
10677;SDS011;5387;48.722;9.110;2024-01-15T03:42:02;9.97;;;5.53;;
10677;SDS011;5387;48.722;9.110;2024-01-15T03:44:30;15.00;;;6.37;;
10677;SDS011;5387;48.722;9.110;2024-01-15T03:46:56;16.70;;;5.60;;
10677;SDS011;5387;48.722;9.110;2024-01-15T03:49:25;13.07;;;6.00;;
10677;SDS011;5387;48.722;9.110;2024-01-15T03:51:52;13.70;;;6.13;;
10677;SDS011;5387;48.722;9.110;2024-01-15T03:54:18;16.73;;;6.63;;
10677;SDS011;5387;48.722;9.110;2024-01-15T03:56:45;14.10;;;6.63;;
10677;SDS011;5387;48.722;9.110;2024-01-15T03:59:12;13.17;;;5.87;;
10677;SDS011;5387;48.722;9.110;2024-01-15T04:01:39;15.47;;;6.33;;
10677;SDS011;5387;48.722;9.110;2024-01-15T04:04:05;14.23;;;5.40;;
10677;SDS011;5387;48.722;9.110;2024-01-15T04:06:33;14.90;;;5.53;;
10677;SDS011;5387;48.722;9.110;2024-01-15T04:09:00;10.10;;;5.33;;
10677;SDS011;5387;48.722;9.110;2024-01-15T04:11:27;14.60;;;5.83;;
10677;SDS011;5387;48.722;9.110;2024-01-15T04:13:54;13.40;;;5.60;;
10677;SDS011;5387;48.722;9.110;2024-01-15T04:16:21;7.07;;;4.43;;
10677;SDS011;5387;48.722;9.110;2024-01-15T04:18:48;14.37;;;6.53;;
10677;SDS011;5387;48.722;9.110;2024-01-15T04:21:16;12.97;;;5.17;;
10677;SDS011;5387;48.722;9.110;2024-01-15T04:23:44;11.77;;;4.57;;
10677;SDS011;5387;48.722;9.110;2024-01-15T04:26:11;11.57;;;6.07;;
10677;SDS011;5387;48.722;9.110;2024-01-15T04:28:38;12.93;;;6.40;;
10677;SDS011;5387;48.722;9.110;2024-01-15T04:31:05;12.83;;;5.07;;
10677;SDS011;5387;48.722;9.110;2024-01-15T04:33:32;14.83;;;6.47;;
10677;SDS011;5387;48.722;9.110;2024-01-15T04:36:01;14.00;;;5.93;;
10677;SDS011;5387;48.722;9.110;2024-01-15T04:38:28;14.20;;;6.33;;
10677;SDS011;5387;48.722;9.110;2024-01-15T04:40:56;8.93;;;4.40;;
10677;SDS011;5387;48.722;9.110;2024-01-15T04:43:23;11.83;;;6.00;;
10677;SDS011;5387;48.722;9.110;2024-01-15T04:45:49;14.77;;;5.83;;
10677;SDS011;5387;48.722;9.110;2024-01-15T04:48:16;15.23;;;6.70;;
10677;SDS011;5387;48.722;9.110;2024-01-15T04:50:43;8.30;;;3.97;;
10677;SDS011;5387;48.722;9.110;2024-01-15T04:53:11;12.10;;;5.57;;
10677;SDS011;5387;48.722;9.110;2024-01-15T04:55:38;9.07;;;4.60;;
10677;SDS011;5387;48.722;9.110;2024-01-15T04:58:06;9.67;;;4.93;;
10677;SDS011;5387;48.722;9.110;2024-01-15T05:00:33;12.50;;;4.60;;
10677;SDS011;5387;48.722;9.110;2024-01-15T05:02:59;15.33;;;6.17;;
10677;SDS011;5387;48.722;9.110;2024-01-15T05:05:26;8.27;;;4.27;;
10677;SDS011;5387;48.722;9.110;2024-01-15T05:07:53;11.90;;;5.30;;
10677;SDS011;5387;48.722;9.110;2024-01-15T05:10:20;13.10;;;6.00;;
10677;SDS011;5387;48.722;9.110;2024-01-15T05:12:46;20.33;;;7.37;;
10677;SDS011;5387;48.722;9.110;2024-01-15T05:15:15;18.23;;;6.27;;
10677;SDS011;5387;48.722;9.110;2024-01-15T05:17:41;17.63;;;5.70;;
10677;SDS011;5387;48.722;9.110;2024-01-15T05:20:09;13.93;;;5.03;;
10677;SDS011;5387;48.722;9.110;2024-01-15T05:22:36;17.53;;;6.13;;
10677;SDS011;5387;48.722;9.110;2024-01-15T05:25:03;16.27;;;6.13;;
10677;SDS011;5387;48.722;9.110;2024-01-15T05:27:30;12.13;;;4.80;;
10677;SDS011;5387;48.722;9.110;2024-01-15T05:29:57;16.07;;;6.73;;
10677;SDS011;5387;48.722;9.110;2024-01-15T05:32:25;14.80;;;6.70;;
10677;SDS011;5387;48.722;9.110;2024-01-15T05:34:52;13.40;;;6.70;;
10677;SDS011;5387;48.722;9.110;2024-01-15T05:37:19;15.03;;;7.23;;
10677;SDS011;5387;48.722;9.110;2024-01-15T05:39:45;12.40;;;5.70;;
10677;SDS011;5387;48.722;9.110;2024-01-15T05:42:12;17.43;;;6.60;;
10677;SDS011;5387;48.722;9.110;2024-01-15T05:44:39;9.00;;;4.17;;
10677;SDS011;5387;48.722;9.110;2024-01-15T05:47:06;9.13;;;5.37;;
10677;SDS011;5387;48.722;9.110;2024-01-15T05:49:35;9.07;;;5.43;;
10677;SDS011;5387;48.722;9.110;2024-01-15T05:52:02;12.20;;;5.57;;
10677;SDS011;5387;48.722;9.110;2024-01-15T05:54:29;12.17;;;5.17;;
10677;SDS011;5387;48.722;9.110;2024-01-15T05:56:55;11.67;;;5.50;;
10677;SDS011;5387;48.722;9.110;2024-01-15T05:59:22;13.73;;;6.73;;
10677;SDS011;5387;48.722;9.110;2024-01-15T06:01:50;9.20;;;6.40;;
10677;SDS011;5387;48.722;9.110;2024-01-15T06:04:17;15.83;;;5.47;;
10677;SDS011;5387;48.722;9.110;2024-01-15T06:06:45;9.00;;;5.23;;
10677;SDS011;5387;48.722;9.110;2024-01-15T06:09:12;11.27;;;4.43;;
10677;SDS011;5387;48.722;9.110;2024-01-15T06:11:39;7.00;;;2.97;;
10677;SDS011;5387;48.722;9.110;2024-01-15T06:14:06;9.47;;;4.83;;
10677;SDS011;5387;48.722;9.110;2024-01-15T06:16:32;8.50;;;4.83;;
10677;SDS011;5387;48.722;9.110;2024-01-15T06:18:59;11.13;;;5.63;;
10677;SDS011;5387;48.722;9.110;2024-01-15T06:21:26;12.63;;;5.80;;
10677;SDS011;5387;48.722;9.110;2024-01-15T06:23:54;13.23;;;6.00;;
10677;SDS011;5387;48.722;9.110;2024-01-15T06:26:21;12.83;;;6.10;;
10677;SDS011;5387;48.722;9.110;2024-01-15T06:28:48;9.43;;;4.23;;
10677;SDS011;5387;48.722;9.110;2024-01-15T06:31:15;11.23;;;5.70;;
10677;SDS011;5387;48.722;9.110;2024-01-15T06:33:42;10.60;;;5.80;;
10677;SDS011;5387;48.722;9.110;2024-01-15T06:36:09;15.90;;;6.37;;
10677;SDS011;5387;48.722;9.110;2024-01-15T06:38:36;4.77;;;3.50;;
10677;SDS011;5387;48.722;9.110;2024-01-15T06:41:04;6.33;;;2.97;;
10677;SDS011;5387;48.722;9.110;2024-01-15T06:43:31;8.83;;;4.43;;
10677;SDS011;5387;48.722;9.110;2024-01-15T06:45:58;8.10;;;5.37;;
10677;SDS011;5387;48.722;9.110;2024-01-15T06:48:25;12.93;;;5.30;;
10677;SDS011;5387;48.722;9.110;2024-01-15T06:50:52;18.77;;;5.80;;
10677;SDS011;5387;48.722;9.110;2024-01-15T06:53:18;10.57;;;4.83;;
10677;SDS011;5387;48.722;9.110;2024-01-15T06:55:45;8.80;;;4.47;;
10677;SDS011;5387;48.722;9.110;2024-01-15T06:58:13;6.63;;;4.27;;
10677;SDS011;5387;48.722;9.110;2024-01-15T07:00:40;13.17;;;6.97;;
10677;SDS011;5387;48.722;9.110;2024-01-15T07:03:07;12.07;;;5.33;;
10677;SDS011;5387;48.722;9.110;2024-01-15T07:05:34;8.63;;;5.07;;
10677;SDS011;5387;48.722;9.110;2024-01-15T07:08:02;8.30;;;4.93;;
10677;SDS011;5387;48.722;9.110;2024-01-15T07:10:29;10.87;;;4.80;;
10677;SDS011;5387;48.722;9.110;2024-01-15T07:12:56;11.17;;;5.73;;
10677;SDS011;5387;48.722;9.110;2024-01-15T07:15:24;7.03;;;4.43;;
10677;SDS011;5387;48.722;9.110;2024-01-15T07:17:51;5.60;;;3.47;;
10677;SDS011;5387;48.722;9.110;2024-01-15T07:20:18;10.07;;;5.43;;
10677;SDS011;5387;48.722;9.110;2024-01-15T07:22:45;5.93;;;3.63;;
10677;SDS011;5387;48.722;9.110;2024-01-15T07:25:12;12.03;;;5.20;;
10677;SDS011;5387;48.722;9.110;2024-01-15T07:27:39;8.73;;;3.80;;
10677;SDS011;5387;48.722;9.110;2024-01-15T07:30:09;12.30;;;5.00;;
10677;SDS011;5387;48.722;9.110;2024-01-15T07:32:38;11.90;;;5.70;;
10677;SDS011;5387;48.722;9.110;2024-01-15T07:35:05;5.27;;;3.17;;
10677;SDS011;5387;48.722;9.110;2024-01-15T07:37:32;6.70;;;4.57;;
10677;SDS011;5387;48.722;9.110;2024-01-15T07:39:59;11.53;;;6.00;;
10677;SDS011;5387;48.722;9.110;2024-01-15T07:42:26;11.40;;;4.80;;
10677;SDS011;5387;48.722;9.110;2024-01-15T07:44:53;11.77;;;5.03;;
10677;SDS011;5387;48.722;9.110;2024-01-15T07:47:20;3.17;;;2.67;;
10677;SDS011;5387;48.722;9.110;2024-01-15T07:49:48;14.20;;;6.07;;
10677;SDS011;5387;48.722;9.110;2024-01-15T07:52:14;13.60;;;5.70;;
10677;SDS011;5387;48.722;9.110;2024-01-15T07:54:41;13.30;;;4.87;;
10677;SDS011;5387;48.722;9.110;2024-01-15T07:57:08;10.50;;;4.57;;
10677;SDS011;5387;48.722;9.110;2024-01-15T07:59:35;8.53;;;3.53;;
10677;SDS011;5387;48.722;9.110;2024-01-15T08:02:02;23.03;;;6.27;;
10677;SDS011;5387;48.722;9.110;2024-01-15T08:04:29;12.63;;;5.50;;
10677;SDS011;5387;48.722;9.110;2024-01-15T08:06:57;4.70;;;2.97;;
10677;SDS011;5387;48.722;9.110;2024-01-15T08:09:24;11.87;;;5.27;;
10677;SDS011;5387;48.722;9.110;2024-01-15T08:11:51;7.77;;;4.23;;
10677;SDS011;5387;48.722;9.110;2024-01-15T08:14:18;12.60;;;4.97;;
10677;SDS011;5387;48.722;9.110;2024-01-15T08:16:45;12.03;;;4.43;;
10677;SDS011;5387;48.722;9.110;2024-01-15T08:19:11;10.27;;;4.83;;
10677;SDS011;5387;48.722;9.110;2024-01-15T08:21:39;5.17;;;2.97;;
10677;SDS011;5387;48.722;9.110;2024-01-15T08:24:07;8.37;;;5.33;;
10677;SDS011;5387;48.722;9.110;2024-01-15T08:26:34;4.17;;;3.27;;
10677;SDS011;5387;48.722;9.110;2024-01-15T08:29:01;11.40;;;4.97;;
10677;SDS011;5387;48.722;9.110;2024-01-15T08:31:28;10.13;;;3.20;;
10677;SDS011;5387;48.722;9.110;2024-01-15T08:33:55;11.60;;;5.20;;
10677;SDS011;5387;48.722;9.110;2024-01-15T08:36:22;8.50;;;4.73;;
10677;SDS011;5387;48.722;9.110;2024-01-15T08:38:50;9.60;;;4.33;;
10677;SDS011;5387;48.722;9.110;2024-01-15T08:41:18;13.37;;;4.97;;
10677;SDS011;5387;48.722;9.110;2024-01-15T08:43:45;9.40;;;5.40;;
10677;SDS011;5387;48.722;9.110;2024-01-15T08:46:11;12.00;;;4.57;;
10677;SDS011;5387;48.722;9.110;2024-01-15T08:48:38;10.03;;;3.97;;
10677;SDS011;5387;48.722;9.110;2024-01-15T08:51:05;8.23;;;3.93;;
10677;SDS011;5387;48.722;9.110;2024-01-15T08:53:33;9.53;;;4.23;;
10677;SDS011;5387;48.722;9.110;2024-01-15T08:55:59;8.50;;;4.27;;
10677;SDS011;5387;48.722;9.110;2024-01-15T08:58:28;6.43;;;3.07;;
10677;SDS011;5387;48.722;9.110;2024-01-15T09:00:54;7.27;;;3.60;;
10677;SDS011;5387;48.722;9.110;2024-01-15T09:03:21;3.60;;;2.67;;
10677;SDS011;5387;48.722;9.110;2024-01-15T09:05:48;2.53;;;1.90;;
10677;SDS011;5387;48.722;9.110;2024-01-15T09:08:16;7.37;;;3.50;;
10677;SDS011;5387;48.722;9.110;2024-01-15T09:10:43;15.97;;;4.27;;
10677;SDS011;5387;48.722;9.110;2024-01-15T09:13:10;2.43;;;2.20;;
10677;SDS011;5387;48.722;9.110;2024-01-15T09:15:39;6.23;;;3.23;;
10677;SDS011;5387;48.722;9.110;2024-01-15T09:18:05;9.33;;;3.93;;
10677;SDS011;5387;48.722;9.110;2024-01-15T09:20:32;8.00;;;3.90;;
10677;SDS011;5387;48.722;9.110;2024-01-15T09:22:59;4.60;;;2.63;;
10677;SDS011;5387;48.722;9.110;2024-01-15T09:25:26;6.17;;;3.87;;
10677;SDS011;5387;48.722;9.110;2024-01-15T09:27:53;6.03;;;2.77;;
10677;SDS011;5387;48.722;9.110;2024-01-15T09:30:20;5.57;;;3.30;;
10677;SDS011;5387;48.722;9.110;2024-01-15T09:32:48;5.33;;;3.20;;
10677;SDS011;5387;48.722;9.110;2024-01-15T09:35:15;6.30;;;3.63;;
10677;SDS011;5387;48.722;9.110;2024-01-15T09:37:41;4.83;;;2.83;;
10677;SDS011;5387;48.722;9.110;2024-01-15T09:40:09;4.07;;;2.43;;
10677;SDS011;5387;48.722;9.110;2024-01-15T09:42:39;4.90;;;3.20;;
10677;SDS011;5387;48.722;9.110;2024-01-15T09:45:07;4.87;;;2.73;;
10677;SDS011;5387;48.722;9.110;2024-01-15T09:47:35;7.80;;;4.20;;
10677;SDS011;5387;48.722;9.110;2024-01-15T09:50:04;8.30;;;3.43;;
10677;SDS011;5387;48.722;9.110;2024-01-15T09:52:31;8.50;;;4.00;;
10677;SDS011;5387;48.722;9.110;2024-01-15T09:54:59;5.07;;;3.40;;
10677;SDS011;5387;48.722;9.110;2024-01-15T09:57:28;5.40;;;3.37;;
10677;SDS011;5387;48.722;9.110;2024-01-15T09:59:55;6.67;;;3.07;;
10677;SDS011;5387;48.722;9.110;2024-01-15T10:04:53;6.60;;;3.47;;
10677;SDS011;5387;48.722;9.110;2024-01-15T10:07:22;5.57;;;2.60;;
10677;SDS011;5387;48.722;9.110;2024-01-15T10:09:53;4.90;;;3.20;;
10677;SDS011;5387;48.722;9.110;2024-01-15T10:12:20;4.53;;;3.37;;
10677;SDS011;5387;48.722;9.110;2024-01-15T10:14:47;5.50;;;3.00;;
10677;SDS011;5387;48.722;9.110;2024-01-15T10:17:15;8.77;;;3.60;;
10677;SDS011;5387;48.722;9.110;2024-01-15T10:19:42;5.47;;;3.47;;
10677;SDS011;5387;48.722;9.110;2024-01-15T10:22:09;7.57;;;3.80;;
10677;SDS011;5387;48.722;9.110;2024-01-15T10:24:37;8.00;;;2.60;;
10677;SDS011;5387;48.722;9.110;2024-01-15T10:27:06;7.00;;;3.33;;
10677;SDS011;5387;48.722;9.110;2024-01-15T10:29:34;2.33;;;2.07;;
10677;SDS011;5387;48.722;9.110;2024-01-15T10:32:01;2.40;;;2.20;;
10677;SDS011;5387;48.722;9.110;2024-01-15T10:34:30;19.17;;;3.17;;
10677;SDS011;5387;48.722;9.110;2024-01-15T10:36:56;5.80;;;3.27;;
10677;SDS011;5387;48.722;9.110;2024-01-15T10:39:23;6.73;;;3.30;;
10677;SDS011;5387;48.722;9.110;2024-01-15T10:41:52;11.07;;;4.20;;
10677;SDS011;5387;48.722;9.110;2024-01-15T10:44:19;7.30;;;3.37;;
10677;SDS011;5387;48.722;9.110;2024-01-15T10:46:45;4.80;;;2.83;;
10677;SDS011;5387;48.722;9.110;2024-01-15T10:49:12;5.63;;;3.10;;
10677;SDS011;5387;48.722;9.110;2024-01-15T10:51:39;6.40;;;3.73;;
10677;SDS011;5387;48.722;9.110;2024-01-15T10:54:07;5.67;;;2.90;;
10677;SDS011;5387;48.722;9.110;2024-01-15T10:56:36;6.80;;;3.50;;
10677;SDS011;5387;48.722;9.110;2024-01-15T10:59:05;3.77;;;3.27;;
10677;SDS011;5387;48.722;9.110;2024-01-15T11:01:33;6.27;;;3.43;;
10677;SDS011;5387;48.722;9.110;2024-01-15T11:04:00;7.27;;;3.53;;
10677;SDS011;5387;48.722;9.110;2024-01-15T11:06:27;6.77;;;3.27;;
10677;SDS011;5387;48.722;9.110;2024-01-15T11:08:54;4.90;;;2.70;;
10677;SDS011;5387;48.722;9.110;2024-01-15T11:11:21;5.77;;;3.40;;
10677;SDS011;5387;48.722;9.110;2024-01-15T11:13:48;5.47;;;2.47;;
10677;SDS011;5387;48.722;9.110;2024-01-15T11:16:18;2.37;;;2.17;;
10677;SDS011;5387;48.722;9.110;2024-01-15T11:21:31;8.00;;;3.10;;
10677;SDS011;5387;48.722;9.110;2024-01-15T11:23:58;4.63;;;3.30;;
10677;SDS011;5387;48.722;9.110;2024-01-15T11:26:29;7.43;;;3.47;;
10677;SDS011;5387;48.722;9.110;2024-01-15T11:28:58;9.20;;;3.73;;
10677;SDS011;5387;48.722;9.110;2024-01-15T11:31:28;8.13;;;4.20;;
10677;SDS011;5387;48.722;9.110;2024-01-15T11:33:55;4.70;;;3.47;;
10677;SDS011;5387;48.722;9.110;2024-01-15T11:36:23;6.33;;;3.20;;
10677;SDS011;5387;48.722;9.110;2024-01-15T11:39:40;7.43;;;3.33;;
10677;SDS011;5387;48.722;9.110;2024-01-15T11:42:09;4.07;;;2.93;;
10677;SDS011;5387;48.722;9.110;2024-01-15T11:44:37;4.47;;;3.27;;
10677;SDS011;5387;48.722;9.110;2024-01-15T11:47:06;7.70;;;3.70;;
10677;SDS011;5387;48.722;9.110;2024-01-15T11:49:46;11.97;;;4.00;;
10677;SDS011;5387;48.722;9.110;2024-01-15T11:52:24;9.87;;;4.13;;
10677;SDS011;5387;48.722;9.110;2024-01-15T11:54:53;6.70;;;3.57;;
10677;SDS011;5387;48.722;9.110;2024-01-15T11:57:36;11.23;;;4.13;;
10677;SDS011;5387;48.722;9.110;2024-01-15T12:00:08;6.30;;;4.07;;
10677;SDS011;5387;48.722;9.110;2024-01-15T12:02:38;7.73;;;3.63;;
10677;SDS011;5387;48.722;9.110;2024-01-15T12:05:06;6.40;;;3.67;;
10677;SDS011;5387;48.722;9.110;2024-01-15T12:07:33;9.37;;;4.50;;
10677;SDS011;5387;48.722;9.110;2024-01-15T12:10:00;5.43;;;3.80;;
10677;SDS011;5387;48.722;9.110;2024-01-15T12:12:29;8.13;;;3.70;;
10677;SDS011;5387;48.722;9.110;2024-01-15T12:15:06;6.77;;;3.73;;
10677;SDS011;5387;48.722;9.110;2024-01-15T12:17:34;7.50;;;3.97;;
10677;SDS011;5387;48.722;9.110;2024-01-15T12:20:02;8.37;;;3.93;;
10677;SDS011;5387;48.722;9.110;2024-01-15T12:22:29;11.03;;;4.37;;
10677;SDS011;5387;48.722;9.110;2024-01-15T12:24:56;7.97;;;4.53;;
10677;SDS011;5387;48.722;9.110;2024-01-15T12:27:24;6.70;;;3.90;;
10677;SDS011;5387;48.722;9.110;2024-01-15T12:29:52;7.43;;;3.93;;
10677;SDS011;5387;48.722;9.110;2024-01-15T12:32:19;4.03;;;3.07;;
10677;SDS011;5387;48.722;9.110;2024-01-15T12:34:46;10.17;;;3.33;;
10677;SDS011;5387;48.722;9.110;2024-01-15T12:37:17;8.97;;;3.37;;
10677;SDS011;5387;48.722;9.110;2024-01-15T12:39:44;10.43;;;4.13;;
10677;SDS011;5387;48.722;9.110;2024-01-15T12:42:11;7.50;;;4.50;;
10677;SDS011;5387;48.722;9.110;2024-01-15T12:44:38;7.63;;;4.67;;
10677;SDS011;5387;48.722;9.110;2024-01-15T12:47:06;8.70;;;5.37;;
10677;SDS011;5387;48.722;9.110;2024-01-15T12:49:33;7.87;;;4.33;;
10677;SDS011;5387;48.722;9.110;2024-01-15T12:52:01;8.83;;;4.33;;
10677;SDS011;5387;48.722;9.110;2024-01-15T12:54:30;3.00;;;2.13;;
10677;SDS011;5387;48.722;9.110;2024-01-15T12:56:56;10.10;;;5.17;;
10677;SDS011;5387;48.722;9.110;2024-01-15T12:59:23;2.60;;;2.33;;
10677;SDS011;5387;48.722;9.110;2024-01-15T13:01:50;10.53;;;4.50;;
10677;SDS011;5387;48.722;9.110;2024-01-15T13:04:21;10.47;;;5.23;;
10677;SDS011;5387;48.722;9.110;2024-01-15T13:06:48;6.73;;;3.90;;
10677;SDS011;5387;48.722;9.110;2024-01-15T13:09:15;8.17;;;4.17;;
10677;SDS011;5387;48.722;9.110;2024-01-15T13:11:44;8.30;;;3.70;;
10677;SDS011;5387;48.722;9.110;2024-01-15T13:14:11;6.83;;;3.97;;
10677;SDS011;5387;48.722;9.110;2024-01-15T13:16:38;7.20;;;2.50;;
10677;SDS011;5387;48.722;9.110;2024-01-15T13:19:06;7.83;;;3.67;;
10677;SDS011;5387;48.722;9.110;2024-01-15T13:21:34;11.00;;;3.93;;
10677;SDS011;5387;48.722;9.110;2024-01-15T13:24:01;10.53;;;4.23;;
10677;SDS011;5387;48.722;9.110;2024-01-15T13:26:30;6.13;;;3.17;;
10677;SDS011;5387;48.722;9.110;2024-01-15T13:28:58;7.60;;;3.80;;
10677;SDS011;5387;48.722;9.110;2024-01-15T13:31:25;6.57;;;3.97;;
10677;SDS011;5387;48.722;9.110;2024-01-15T13:33:52;9.13;;;4.23;;
10677;SDS011;5387;48.722;9.110;2024-01-15T13:36:20;9.33;;;3.70;;
10677;SDS011;5387;48.722;9.110;2024-01-15T13:38:48;9.43;;;4.67;;
10677;SDS011;5387;48.722;9.110;2024-01-15T13:41:15;7.60;;;3.73;;
10677;SDS011;5387;48.722;9.110;2024-01-15T13:43:43;8.63;;;3.90;;
10677;SDS011;5387;48.722;9.110;2024-01-15T13:46:14;13.70;;;4.10;;
10677;SDS011;5387;48.722;9.110;2024-01-15T13:48:42;6.67;;;3.80;;
10677;SDS011;5387;48.722;9.110;2024-01-15T13:51:09;9.27;;;4.70;;
10677;SDS011;5387;48.722;9.110;2024-01-15T13:53:37;16.83;;;8.20;;
10677;SDS011;5387;48.722;9.110;2024-01-15T13:56:04;8.70;;;4.47;;
10677;SDS011;5387;48.722;9.110;2024-01-15T13:58:32;6.83;;;4.17;;
10677;SDS011;5387;48.722;9.110;2024-01-15T14:00:59;10.87;;;3.80;;
10677;SDS011;5387;48.722;9.110;2024-01-15T14:03:29;5.87;;;3.67;;
10677;SDS011;5387;48.722;9.110;2024-01-15T14:05:56;9.07;;;3.40;;
10677;SDS011;5387;48.722;9.110;2024-01-15T14:08:23;6.73;;;3.43;;
10677;SDS011;5387;48.722;9.110;2024-01-15T14:10:50;8.57;;;3.80;;
10677;SDS011;5387;48.722;9.110;2024-01-15T14:13:17;8.07;;;3.40;;
10677;SDS011;5387;48.722;9.110;2024-01-15T14:15:44;6.57;;;2.70;;
10677;SDS011;5387;48.722;9.110;2024-01-15T14:18:10;11.00;;;3.43;;
10677;SDS011;5387;48.722;9.110;2024-01-15T14:20:39;6.03;;;3.40;;
10677;SDS011;5387;48.722;9.110;2024-01-15T14:23:05;7.83;;;3.63;;
10677;SDS011;5387;48.722;9.110;2024-01-15T14:25:32;7.47;;;3.33;;
10677;SDS011;5387;48.722;9.110;2024-01-15T14:27:59;7.50;;;3.00;;
10677;SDS011;5387;48.722;9.110;2024-01-15T14:30:26;4.57;;;2.97;;
10677;SDS011;5387;48.722;9.110;2024-01-15T14:32:53;8.27;;;3.20;;
10677;SDS011;5387;48.722;9.110;2024-01-15T14:35:20;7.03;;;3.13;;
10677;SDS011;5387;48.722;9.110;2024-01-15T14:37:49;6.50;;;2.77;;
10677;SDS011;5387;48.722;9.110;2024-01-15T14:40:16;4.77;;;2.73;;
10677;SDS011;5387;48.722;9.110;2024-01-15T14:42:43;4.77;;;2.60;;
10677;SDS011;5387;48.722;9.110;2024-01-15T14:45:10;4.60;;;1.87;;
10677;SDS011;5387;48.722;9.110;2024-01-15T14:47:37;3.10;;;2.20;;
10677;SDS011;5387;48.722;9.110;2024-01-15T14:50:05;1.87;;;1.77;;
10677;SDS011;5387;48.722;9.110;2024-01-15T14:52:33;2.30;;;2.10;;
10677;SDS011;5387;48.722;9.110;2024-01-15T14:55:01;4.30;;;2.07;;
10677;SDS011;5387;48.722;9.110;2024-01-15T14:57:29;3.33;;;2.37;;
10677;SDS011;5387;48.722;9.110;2024-01-15T14:59:55;7.83;;;2.90;;
10677;SDS011;5387;48.722;9.110;2024-01-15T15:02:23;3.17;;;2.17;;